sensor_id;sensor_type;location;lat;lon;timestamp;pressure;altitude;pressure_sealevel;temperature;humidity
72548;BME280;60570;50.848;6.776;2022-10-16T00:00:47;100113.50;;;16.41;70.02
72548;BME280;60570;50.848;6.776;2022-10-16T00:01:47;100112.25;;;16.39;70.10
72548;BME280;60570;50.848;6.776;2022-10-16T00:02:47;100110.25;;;16.39;69.94
72548;BME280;60570;50.848;6.776;2022-10-16T00:03:49;100109.84;;;16.37;69.95
72548;BME280;60570;50.848;6.776;2022-10-16T00:04:49;100109.44;;;16.39;69.93
72548;BME280;60570;50.848;6.776;2022-10-16T00:05:50;100112.63;;;16.37;70.10
72548;BME280;60570;50.848;6.776;2022-10-16T00:06:50;100120.25;;;16.37;69.86
72548;BME280;60570;50.848;6.776;2022-10-16T00:07:51;100115.44;;;16.37;69.87
72548;BME280;60570;50.848;6.776;2022-10-16T00:08:52;100116.25;;;16.38;69.92
72548;BME280;60570;50.848;6.776;2022-10-16T00:09:52;100111.81;;;16.37;70.07
72548;BME280;60570;50.848;6.776;2022-10-16T00:10:59;100104.63;;;16.36;69.92
72548;BME280;60570;50.848;6.776;2022-10-16T00:11:59;100110.59;;;16.34;70.09
72548;BME280;60570;50.848;6.776;2022-10-16T00:13:00;100107.44;;;16.36;69.88
72548;BME280;60570;50.848;6.776;2022-10-16T00:14:02;100117.00;;;16.35;70.01
72548;BME280;60570;50.848;6.776;2022-10-16T00:15:04;100113.41;;;16.34;69.98
72548;BME280;60570;50.848;6.776;2022-10-16T00:16:05;100120.19;;;16.33;69.91
72548;BME280;60570;50.848;6.776;2022-10-16T00:17:05;100120.59;;;16.32;69.97
72548;BME280;60570;50.848;6.776;2022-10-16T00:18:06;100116.59;;;16.33;69.89
72548;BME280;60570;50.848;6.776;2022-10-16T00:19:07;100117.81;;;16.35;69.91
72548;BME280;60570;50.848;6.776;2022-10-16T00:20:07;100124.59;;;16.34;69.86
72548;BME280;60570;50.848;6.776;2022-10-16T00:21:11;100128.22;;;16.35;70.15
72548;BME280;60570;50.848;6.776;2022-10-16T00:22:12;100130.22;;;16.34;69.75
72548;BME280;60570;50.848;6.776;2022-10-16T00:23:12;100125.41;;;16.35;70.06
72548;BME280;60570;50.848;6.776;2022-10-16T00:24:13;100128.63;;;16.33;69.91
72548;BME280;60570;50.848;6.776;2022-10-16T00:25:13;100123.81;;;16.34;69.93
72548;BME280;60570;50.848;6.776;2022-10-16T00:26:16;100120.59;;;16.32;69.90
72548;BME280;60570;50.848;6.776;2022-10-16T00:27:16;100119.78;;;16.31;69.73
72548;BME280;60570;50.848;6.776;2022-10-16T00:28:17;100121.00;;;16.30;69.85
72548;BME280;60570;50.848;6.776;2022-10-16T00:29:17;100118.19;;;16.30;69.97
72548;BME280;60570;50.848;6.776;2022-10-16T00:30:17;100124.97;;;16.29;69.98
72548;BME280;60570;50.848;6.776;2022-10-16T00:31:20;100112.50;;;16.27;70.22
72548;BME280;60570;50.848;6.776;2022-10-16T00:32:21;100106.53;;;16.28;69.67
72548;BME280;60570;50.848;6.776;2022-10-16T00:33:22;100114.13;;;16.28;70.13
72548;BME280;60570;50.848;6.776;2022-10-16T00:34:22;100104.53;;;16.29;70.10
72548;BME280;60570;50.848;6.776;2022-10-16T00:35:23;100098.13;;;16.28;69.94
72548;BME280;60570;50.848;6.776;2022-10-16T00:36:25;100096.50;;;16.27;70.04
72548;BME280;60570;50.848;6.776;2022-10-16T00:37:25;100086.50;;;16.26;69.99
72548;BME280;60570;50.848;6.776;2022-10-16T00:38:26;100086.09;;;16.28;70.20
72548;BME280;60570;50.848;6.776;2022-10-16T00:39:26;100089.72;;;16.28;69.83
72548;BME280;60570;50.848;6.776;2022-10-16T00:40:27;100091.28;;;16.26;70.17
72548;BME280;60570;50.848;6.776;2022-10-16T00:41:29;100101.31;;;16.27;70.25
72548;BME280;60570;50.848;6.776;2022-10-16T00:42:30;100100.88;;;16.25;70.03
72548;BME280;60570;50.848;6.776;2022-10-16T00:43:43;100100.09;;;16.24;70.33
72548;BME280;60570;50.848;6.776;2022-10-16T00:44:51;100092.03;;;16.23;70.15
72548;BME280;60570;50.848;6.776;2022-10-16T00:45:55;100103.66;;;16.21;70.18
72548;BME280;60570;50.848;6.776;2022-10-16T00:46:56;100104.06;;;16.23;70.28
72548;BME280;60570;50.848;6.776;2022-10-16T00:47:56;100107.69;;;16.24;70.19
72548;BME280;60570;50.848;6.776;2022-10-16T00:50:08;100106.88;;;16.23;70.12
72548;BME280;60570;50.848;6.776;2022-10-16T00:51:09;100103.69;;;16.25;70.00
72548;BME280;60570;50.848;6.776;2022-10-16T00:52:10;100107.69;;;16.24;69.97
72548;BME280;60570;50.848;6.776;2022-10-16T00:53:12;100114.47;;;16.23;70.00
72548;BME280;60570;50.848;6.776;2022-10-16T00:54:19;100097.66;;;16.23;69.98
72548;BME280;60570;50.848;6.776;2022-10-16T00:55:21;100095.28;;;16.25;69.99
72548;BME280;60570;50.848;6.776;2022-10-16T00:56:22;100094.84;;;16.23;70.08
72548;BME280;60570;50.848;6.776;2022-10-16T00:57:23;100098.03;;;16.21;70.19
72548;BME280;60570;50.848;6.776;2022-10-16T00:58:24;100096.88;;;16.22;69.70
72548;BME280;60570;50.848;6.776;2022-10-16T01:00:35;100102.81;;;16.21;70.13
72548;BME280;60570;50.848;6.776;2022-10-16T01:01:36;100108.44;;;16.21;70.28
72548;BME280;60570;50.848;6.776;2022-10-16T01:02:36;100110.06;;;16.22;69.88
72548;BME280;60570;50.848;6.776;2022-10-16T01:03:37;100106.03;;;16.19;70.03
72548;BME280;60570;50.848;6.776;2022-10-16T01:04:52;100104.03;;;16.20;70.18
72548;BME280;60570;50.848;6.776;2022-10-16T01:06:02;100107.22;;;16.18;70.09
72548;BME280;60570;50.848;6.776;2022-10-16T01:07:14;100098.81;;;16.18;70.20
72548;BME280;60570;50.848;6.776;2022-10-16T01:08:27;100101.19;;;16.16;70.22
72548;BME280;60570;50.848;6.776;2022-10-16T01:10:00;100103.19;;;16.15;70.12
72548;BME280;60570;50.848;6.776;2022-10-16T01:11:53;100106.75;;;16.12;70.31
72548;BME280;60570;50.848;6.776;2022-10-16T01:12:57;100105.56;;;16.13;70.35
72548;BME280;60570;50.848;6.776;2022-10-16T01:14:06;100120.78;;;16.12;70.22
72548;BME280;60570;50.848;6.776;2022-10-16T01:16:35;100122.38;;;16.13;70.20
72548;BME280;60570;50.848;6.776;2022-10-16T01:17:51;100126.41;;;16.16;70.23
72548;BME280;60570;50.848;6.776;2022-10-16T01:19:02;100125.59;;;16.15;70.04
72548;BME280;60570;50.848;6.776;2022-10-16T01:20:26;100127.19;;;16.16;70.20
72548;BME280;60570;50.848;6.776;2022-10-16T01:21:30;100129.22;;;16.16;69.83
72548;BME280;60570;50.848;6.776;2022-10-16T01:26:10;100118.78;;;16.16;70.11
72548;BME280;60570;50.848;6.776;2022-10-16T01:28:15;100124.41;;;16.16;69.93
72548;BME280;60570;50.848;6.776;2022-10-16T01:29:36;100124.38;;;16.13;69.86
72548;BME280;60570;50.848;6.776;2022-10-16T01:30:40;100114.81;;;16.17;69.71
72548;BME280;60570;50.848;6.776;2022-10-16T01:31:46;100111.59;;;16.15;70.01
72548;BME280;60570;50.848;6.776;2022-10-16T01:32:59;100101.94;;;16.13;70.05
72548;BME280;60570;50.848;6.776;2022-10-16T01:34:06;100118.75;;;16.13;70.06
72548;BME280;60570;50.848;6.776;2022-10-16T01:35:15;100117.97;;;16.12;70.01
72548;BME280;60570;50.848;6.776;2022-10-16T01:36:21;100117.16;;;16.12;70.00
72548;BME280;60570;50.848;6.776;2022-10-16T01:37:48;100124.78;;;16.15;69.89
72548;BME280;60570;50.848;6.776;2022-10-16T01:38:52;100121.56;;;16.13;70.12
72548;BME280;60570;50.848;6.776;2022-10-16T01:39:58;100126.75;;;16.11;69.90
72548;BME280;60570;50.848;6.776;2022-10-16T01:41:06;100133.53;;;16.10;69.94
72548;BME280;60570;50.848;6.776;2022-10-16T01:42:15;100135.56;;;16.13;69.90
72548;BME280;60570;50.848;6.776;2022-10-16T01:43:22;100131.19;;;16.12;69.68
72548;BME280;60570;50.848;6.776;2022-10-16T01:44:29;100129.53;;;16.11;69.77
72548;BME280;60570;50.848;6.776;2022-10-16T01:45:31;100132.72;;;16.09;70.03
72548;BME280;60570;50.848;6.776;2022-10-16T01:46:37;100125.16;;;16.10;69.79
72548;BME280;60570;50.848;6.776;2022-10-16T01:47:38;100129.94;;;16.09;70.24
72548;BME280;60570;50.848;6.776;2022-10-16T01:48:40;100137.59;;;16.12;69.81
72548;BME280;60570;50.848;6.776;2022-10-16T01:49:42;100133.13;;;16.08;69.96
72548;BME280;60570;50.848;6.776;2022-10-16T01:50:44;100135.09;;;16.07;70.03
72548;BME280;60570;50.848;6.776;2022-10-16T01:51:52;100136.75;;;16.08;69.83
72548;BME280;60570;50.848;6.776;2022-10-16T01:52:56;100141.13;;;16.09;69.95
72548;BME280;60570;50.848;6.776;2022-10-16T01:54:00;100136.31;;;16.06;69.98
72548;BME280;60570;50.848;6.776;2022-10-16T01:55:03;100139.47;;;16.05;70.05
72548;BME280;60570;50.848;6.776;2022-10-16T01:56:08;100135.09;;;16.07;70.08
72548;BME280;60570;50.848;6.776;2022-10-16T01:57:10;100136.66;;;16.05;70.07
72548;BME280;60570;50.848;6.776;2022-10-16T01:58:13;100127.50;;;16.08;69.83
72548;BME280;60570;50.848;6.776;2022-10-16T01:59:17;100133.13;;;16.08;70.09
72548;BME280;60570;50.848;6.776;2022-10-16T02:00:21;100130.72;;;16.06;70.02
72548;BME280;60570;50.848;6.776;2022-10-16T02:01:24;100133.88;;;16.05;69.92
72548;BME280;60570;50.848;6.776;2022-10-16T02:02:28;100133.88;;;16.05;70.07
72548;BME280;60570;50.848;6.776;2022-10-16T02:03:31;100129.47;;;16.04;69.96
72548;BME280;60570;50.848;6.776;2022-10-16T02:05:04;100141.50;;;16.04;70.10
72548;BME280;60570;50.848;6.776;2022-10-16T02:06:06;100145.47;;;16.03;70.20
72548;BME280;60570;50.848;6.776;2022-10-16T02:07:07;100145.47;;;16.03;70.10
72548;BME280;60570;50.848;6.776;2022-10-16T02:08:07;100149.84;;;16.01;70.37
72548;BME280;60570;50.848;6.776;2022-10-16T02:09:08;100147.44;;;16.03;70.35
72548;BME280;60570;50.848;6.776;2022-10-16T02:10:09;100153.06;;;16.03;70.19
72548;BME280;60570;50.848;6.776;2022-10-16T02:11:10;100152.28;;;16.02;70.29
72548;BME280;60570;50.848;6.776;2022-10-16T02:12:22;100147.44;;;16.03;70.01
72548;BME280;60570;50.848;6.776;2022-10-16T02:13:29;100147.88;;;16.05;69.77
72548;BME280;60570;50.848;6.776;2022-10-16T02:14:32;100144.28;;;16.04;69.97
72548;BME280;60570;50.848;6.776;2022-10-16T02:15:32;100140.69;;;16.04;69.50
72548;BME280;60570;50.848;6.776;2022-10-16T02:16:44;100144.66;;;16.03;69.91
72548;BME280;60570;50.848;6.776;2022-10-16T02:17:45;100143.09;;;16.05;70.01
72548;BME280;60570;50.848;6.776;2022-10-16T02:18:46;100145.47;;;16.03;69.85
72548;BME280;60570;50.848;6.776;2022-10-16T02:19:48;100147.84;;;16.01;70.07
72548;BME280;60570;50.848;6.776;2022-10-16T02:20:56;100145.06;;;16.05;69.88
72548;BME280;60570;50.848;6.776;2022-10-16T02:22:00;100141.50;;;16.04;69.93
72548;BME280;60570;50.848;6.776;2022-10-16T02:23:03;100134.25;;;16.03;69.83
72548;BME280;60570;50.848;6.776;2022-10-16T02:24:19;100130.63;;;16.03;69.95
72548;BME280;60570;50.848;6.776;2022-10-16T02:25:32;100141.06;;;16.02;69.92
72548;BME280;60570;50.848;6.776;2022-10-16T02:26:48;100141.06;;;16.02;69.96
72548;BME280;60570;50.848;6.776;2022-10-16T02:28:00;100144.59;;;15.99;69.89
72548;BME280;60570;50.848;6.776;2022-10-16T02:29:08;100149.03;;;16.00;70.09
72548;BME280;60570;50.848;6.776;2022-10-16T02:31:20;100145.84;;;16.02;69.96
72548;BME280;60570;50.848;6.776;2022-10-16T02:32:24;100149.84;;;16.01;70.14
72548;BME280;60570;50.848;6.776;2022-10-16T02:33:31;100153.06;;;16.03;69.61
72548;BME280;60570;50.848;6.776;2022-10-16T02:34:33;100157.06;;;16.02;69.94
72548;BME280;60570;50.848;6.776;2022-10-16T02:35:35;100151.84;;;16.00;69.97
72548;BME280;60570;50.848;6.776;2022-10-16T02:36:36;100149.03;;;16.00;69.85
72548;BME280;60570;50.848;6.776;2022-10-16T02:37:38;100149.44;;;15.99;69.98
72548;BME280;60570;50.848;6.776;2022-10-16T02:38:40;100150.63;;;16.01;69.98
72548;BME280;60570;50.848;6.776;2022-10-16T02:39:41;100148.22;;;16.00;69.76
72548;BME280;60570;50.848;6.776;2022-10-16T02:40:41;100137.84;;;16.00;69.73
72548;BME280;60570;50.848;6.776;2022-10-16T02:41:42;100141.44;;;16.01;69.95
72548;BME280;60570;50.848;6.776;2022-10-16T02:42:43;100139.00;;;15.99;70.13
72548;BME280;60570;50.848;6.776;2022-10-16T02:43:43;100144.25;;;16.01;70.05
72548;BME280;60570;50.848;6.776;2022-10-16T02:44:44;100149.84;;;16.01;69.91
72548;BME280;60570;50.848;6.776;2022-10-16T02:45:44;100153.44;;;16.01;69.66
72548;BME280;60570;50.848;6.776;2022-10-16T02:46:45;100151.06;;;16.03;69.69
72548;BME280;60570;50.848;6.776;2022-10-16T02:47:45;100147.84;;;16.01;69.86
72548;BME280;60570;50.848;6.776;2022-10-16T02:48:46;100153.06;;;16.03;69.64
72548;BME280;60570;50.848;6.776;2022-10-16T02:49:46;100155.06;;;16.02;69.66
72548;BME280;60570;50.848;6.776;2022-10-16T02:50:47;100159.47;;;16.03;69.53
72548;BME280;60570;50.848;6.776;2022-10-16T02:51:47;100161.16;;;16.08;69.18
72548;BME280;60570;50.848;6.776;2022-10-16T02:52:48;100169.50;;;16.04;69.42
72548;BME280;60570;50.848;6.776;2022-10-16T02:53:49;100161.06;;;16.01;69.60
72548;BME280;60570;50.848;6.776;2022-10-16T02:54:49;100165.84;;;16.00;69.57
72548;BME280;60570;50.848;6.776;2022-10-16T02:55:49;100169.47;;;16.01;69.66
72548;BME280;60570;50.848;6.776;2022-10-16T02:56:50;100164.22;;;15.99;69.81
72548;BME280;60570;50.848;6.776;2022-10-16T02:57:50;100163.88;;;16.01;69.86
72548;BME280;60570;50.848;6.776;2022-10-16T02:58:51;100169.09;;;16.02;69.63
72548;BME280;60570;50.848;6.776;2022-10-16T02:59:51;100163.88;;;16.01;69.49
72548;BME280;60570;50.848;6.776;2022-10-16T03:00:52;100157.06;;;16.02;69.63
72548;BME280;60570;50.848;6.776;2022-10-16T03:01:52;100156.25;;;16.01;69.62
72548;BME280;60570;50.848;6.776;2022-10-16T03:02:53;100155.06;;;16.02;69.50
72548;BME280;60570;50.848;6.776;2022-10-16T03:03:53;100158.66;;;16.03;69.65
72548;BME280;60570;50.848;6.776;2022-10-16T03:04:54;100155.47;;;16.01;69.84
72548;BME280;60570;50.848;6.776;2022-10-16T03:05:54;100143.41;;;15.97;69.41
72548;BME280;60570;50.848;6.776;2022-10-16T03:06:55;100144.19;;;15.97;69.56
72548;BME280;60570;50.848;6.776;2022-10-16T03:07:55;100146.97;;;15.97;69.76
72548;BME280;60570;50.848;6.776;2022-10-16T03:08:56;100149.00;;;15.97;69.61
72548;BME280;60570;50.848;6.776;2022-10-16T03:09:56;100138.16;;;15.95;69.66
72548;BME280;60570;50.848;6.776;2022-10-16T03:11:00;100131.75;;;15.95;69.70
72548;BME280;60570;50.848;6.776;2022-10-16T03:12:00;100137.38;;;15.95;69.57
72548;BME280;60570;50.848;6.776;2022-10-16T03:13:01;100135.75;;;15.94;69.50
72548;BME280;60570;50.848;6.776;2022-10-16T03:14:01;100136.94;;;15.93;69.86
72548;BME280;60570;50.848;6.776;2022-10-16T03:15:02;100136.94;;;15.93;69.88
72548;BME280;60570;50.848;6.776;2022-10-16T03:16:03;100136.13;;;15.92;69.49
72548;BME280;60570;50.848;6.776;2022-10-16T03:17:04;100133.72;;;15.91;69.80
72548;BME280;60570;50.848;6.776;2022-10-16T03:18:04;100132.91;;;15.90;69.58
72548;BME280;60570;50.848;6.776;2022-10-16T03:19:05;100135.31;;;15.92;69.78
72548;BME280;60570;50.848;6.776;2022-10-16T03:20:06;100133.31;;;15.92;69.68
72548;BME280;60570;50.848;6.776;2022-10-16T03:21:07;100144.09;;;15.90;69.73
72548;BME280;60570;50.848;6.776;2022-10-16T03:22:07;100140.09;;;15.91;69.68
72548;BME280;60570;50.848;6.776;2022-10-16T03:23:08;100143.72;;;15.92;69.67
72548;BME280;60570;50.848;6.776;2022-10-16T03:24:09;100151.31;;;15.91;69.72
72548;BME280;60570;50.848;6.776;2022-10-16T03:25:09;100147.72;;;15.91;69.60
72548;BME280;60570;50.848;6.776;2022-10-16T03:26:10;100143.31;;;15.93;69.76
72548;BME280;60570;50.848;6.776;2022-10-16T03:27:10;100146.94;;;15.94;69.54
72548;BME280;60570;50.848;6.776;2022-10-16T03:28:10;100150.56;;;15.94;69.44
72548;BME280;60570;50.848;6.776;2022-10-16T03:29:11;100144.53;;;15.92;69.05
72548;BME280;60570;50.848;6.776;2022-10-16T03:30:12;100138.13;;;15.92;69.65
72548;BME280;60570;50.848;6.776;2022-10-16T03:31:12;100122.06;;;15.89;69.69
72548;BME280;60570;50.848;6.776;2022-10-16T03:32:13;100131.25;;;15.89;69.75
72548;BME280;60570;50.848;6.776;2022-10-16T03:33:13;100140.47;;;15.90;69.64
72548;BME280;60570;50.848;6.776;2022-10-16T03:34:14;100140.88;;;15.88;69.65
72548;BME280;60570;50.848;6.776;2022-10-16T03:35:14;100149.28;;;15.88;69.88
72548;BME280;60570;50.848;6.776;2022-10-16T03:36:15;100142.91;;;15.91;69.57
72548;BME280;60570;50.848;6.776;2022-10-16T03:37:15;100142.53;;;15.93;69.47
72548;BME280;60570;50.848;6.776;2022-10-16T03:38:16;100140.91;;;15.92;69.53
72548;BME280;60570;50.848;6.776;2022-10-16T03:39:16;100138.88;;;15.89;69.59
72548;BME280;60570;50.848;6.776;2022-10-16T03:40:17;100139.66;;;15.89;69.63
72548;BME280;60570;50.848;6.776;2022-10-16T03:41:17;100138.06;;;15.88;69.69
72548;BME280;60570;50.848;6.776;2022-10-16T03:42:18;100144.06;;;15.87;69.72
72548;BME280;60570;50.848;6.776;2022-10-16T03:43:19;100148.03;;;15.86;69.74
72548;BME280;60570;50.848;6.776;2022-10-16T03:44:19;100150.47;;;15.87;69.55
72548;BME280;60570;50.848;6.776;2022-10-16T03:45:19;100150.53;;;15.91;69.42
72548;BME280;60570;50.848;6.776;2022-10-16T03:46:20;100148.94;;;15.93;69.69
72548;BME280;60570;50.848;6.776;2022-10-16T03:47:20;100158.91;;;15.91;69.56
72548;BME280;60570;50.848;6.776;2022-10-16T03:48:23;100152.06;;;15.88;69.35
72548;BME280;60570;50.848;6.776;2022-10-16T03:49:23;100158.09;;;15.90;69.57
72548;BME280;60570;50.848;6.776;2022-10-16T03:50:24;100153.28;;;15.87;69.93
72548;BME280;60570;50.848;6.776;2022-10-16T03:51:24;100161.69;;;15.87;69.77
72548;BME280;60570;50.848;6.776;2022-10-16T03:52:25;100173.69;;;15.88;69.73
72548;BME280;60570;50.848;6.776;2022-10-16T03:53:25;100175.69;;;15.87;69.46
72548;BME280;60570;50.848;6.776;2022-10-16T03:54:26;100180.91;;;15.89;69.47
72548;BME280;60570;50.848;6.776;2022-10-16T03:55:26;100186.56;;;15.92;69.58
72548;BME280;60570;50.848;6.776;2022-10-16T03:56:27;100185.34;;;15.93;69.26
72548;BME280;60570;50.848;6.776;2022-10-16T03:57:27;100182.56;;;15.93;69.39
72548;BME280;60570;50.848;6.776;2022-10-16T03:58:27;100192.97;;;15.93;69.15
72548;BME280;60570;50.848;6.776;2022-10-16T03:59:28;100189.78;;;15.94;69.04
72548;BME280;60570;50.848;6.776;2022-10-16T04:00:28;100184.91;;;15.91;69.22
72548;BME280;60570;50.848;6.776;2022-10-16T04:01:29;100183.75;;;15.92;69.59
72548;BME280;60570;50.848;6.776;2022-10-16T04:02:29;100176.50;;;15.91;69.01
72548;BME280;60570;50.848;6.776;2022-10-16T04:03:30;100172.94;;;15.91;69.36
72548;BME280;60570;50.848;6.776;2022-10-16T04:04:30;100177.72;;;15.90;69.34
72548;BME280;60570;50.848;6.776;2022-10-16T04:05:31;100178.09;;;15.89;69.27
72548;BME280;60570;50.848;6.776;2022-10-16T04:06:31;100179.31;;;15.91;69.00
72548;BME280;60570;50.848;6.776;2022-10-16T04:07:31;100176.91;;;15.90;68.93
72548;BME280;60570;50.848;6.776;2022-10-16T04:08:32;100176.91;;;15.90;69.32
72548;BME280;60570;50.848;6.776;2022-10-16T04:09:35;100164.88;;;15.89;69.14
72548;BME280;60570;50.848;6.776;2022-10-16T04:10:35;100164.13;;;15.92;69.13
72548;BME280;60570;50.848;6.776;2022-10-16T04:11:36;100155.69;;;15.89;69.34
72548;BME280;60570;50.848;6.776;2022-10-16T04:12:36;100173.69;;;15.88;69.32
72548;BME280;60570;50.848;6.776;2022-10-16T04:13:37;100170.09;;;15.87;69.64
72548;BME280;60570;50.848;6.776;2022-10-16T04:14:37;100178.06;;;15.85;69.50
72548;BME280;60570;50.848;6.776;2022-10-16T04:15:38;100175.69;;;15.87;69.53
72548;BME280;60570;50.848;6.776;2022-10-16T04:16:39;100173.25;;;15.86;69.33
72548;BME280;60570;50.848;6.776;2022-10-16T04:17:39;100184.88;;;15.88;69.38
72548;BME280;60570;50.848;6.776;2022-10-16T04:18:39;100184.84;;;15.84;69.36
72548;BME280;60570;50.848;6.776;2022-10-16T04:19:40;100188.03;;;15.83;69.27
72548;BME280;60570;50.848;6.776;2022-10-16T04:20:40;100186.81;;;15.84;69.34
72548;BME280;60570;50.848;6.776;2022-10-16T04:21:41;100183.66;;;15.85;69.49
72548;BME280;60570;50.848;6.776;2022-10-16T04:22:41;100185.22;;;15.83;69.20
72548;BME280;60570;50.848;6.776;2022-10-16T04:23:42;100184.09;;;15.87;69.22
72548;BME280;60570;50.848;6.776;2022-10-16T04:24:42;100174.44;;;15.85;69.12
72548;BME280;60570;50.848;6.776;2022-10-16T04:25:43;100181.28;;;15.87;69.14
72548;BME280;60570;50.848;6.776;2022-10-16T04:26:43;100177.25;;;15.85;69.39
72548;BME280;60570;50.848;6.776;2022-10-16T04:27:44;100176.81;;;15.83;69.29
72548;BME280;60570;50.848;6.776;2022-10-16T04:28:44;100179.63;;;15.83;69.34
72548;BME280;60570;50.848;6.776;2022-10-16T04:29:44;100189.19;;;15.82;69.63
72548;BME280;60570;50.848;6.776;2022-10-16T04:30:45;100189.63;;;15.84;69.31
72548;BME280;60570;50.848;6.776;2022-10-16T04:31:46;100186.81;;;15.84;69.22
72548;BME280;60570;50.848;6.776;2022-10-16T04:32:50;100192.50;;;15.87;69.29
72548;BME280;60570;50.848;6.776;2022-10-16T04:33:51;100187.25;;;15.86;69.43
72548;BME280;60570;50.848;6.776;2022-10-16T04:34:52;100183.22;;;15.83;69.46
72548;BME280;60570;50.848;6.776;2022-10-16T04:36:02;100182.00;;;15.81;69.50
72548;BME280;60570;50.848;6.776;2022-10-16T04:37:03;100187.22;;;15.82;69.43
72548;BME280;60570;50.848;6.776;2022-10-16T04:38:03;100188.75;;;15.80;69.48
72548;BME280;60570;50.848;6.776;2022-10-16T04:39:04;100189.56;;;15.80;69.58
72548;BME280;60570;50.848;6.776;2022-10-16T04:40:04;100190.00;;;15.82;69.38
72548;BME280;60570;50.848;6.776;2022-10-16T04:41:06;100187.59;;;15.81;69.20
72548;BME280;60570;50.848;6.776;2022-10-16T04:42:07;100186.78;;;15.80;69.28
72548;BME280;60570;50.848;6.776;2022-10-16T04:43:07;100188.41;;;15.81;69.38
72548;BME280;60570;50.848;6.776;2022-10-16T04:44:08;100183.16;;;15.80;69.56
72548;BME280;60570;50.848;6.776;2022-10-16T04:45:09;100191.56;;;15.80;69.48
72548;BME280;60570;50.848;6.776;2022-10-16T04:46:09;100194.75;;;15.78;69.34
72548;BME280;60570;50.848;6.776;2022-10-16T04:47:10;100189.16;;;15.78;69.49
72548;BME280;60570;50.848;6.776;2022-10-16T04:48:11;100197.56;;;15.78;69.38
72548;BME280;60570;50.848;6.776;2022-10-16T04:49:12;100193.94;;;15.78;69.76
72548;BME280;60570;50.848;6.776;2022-10-16T04:50:12;100199.19;;;15.79;69.64
72548;BME280;60570;50.848;6.776;2022-10-16T04:51:12;100198.38;;;15.79;69.24
72548;BME280;60570;50.848;6.776;2022-10-16T04:52:13;100205.94;;;15.78;69.40
72548;BME280;60570;50.848;6.776;2022-10-16T04:53:13;100193.56;;;15.79;69.44
72548;BME280;60570;50.848;6.776;2022-10-16T04:54:14;100204.78;;;15.79;69.38
72548;BME280;60570;50.848;6.776;2022-10-16T04:55:14;100207.59;;;15.79;69.37
72548;BME280;60570;50.848;6.776;2022-10-16T04:56:15;100209.94;;;15.77;69.41
72548;BME280;60570;50.848;6.776;2022-10-16T04:57:17;100206.34;;;15.77;69.49
72548;BME280;60570;50.848;6.776;2022-10-16T04:58:17;100209.13;;;15.77;69.90
72548;BME280;60570;50.848;6.776;2022-10-16T04:59:18;100209.53;;;15.75;69.56
72548;BME280;60570;50.848;6.776;2022-10-16T05:00:19;100212.69;;;15.74;69.64
72548;BME280;60570;50.848;6.776;2022-10-16T05:01:20;100213.06;;;15.72;69.62
72548;BME280;60570;50.848;6.776;2022-10-16T05:02:20;100212.31;;;15.75;69.49
72548;BME280;60570;50.848;6.776;2022-10-16T05:03:21;100213.09;;;15.76;69.69
72548;BME280;60570;50.848;6.776;2022-10-16T05:04:21;100215.47;;;15.74;69.64
72548;BME280;60570;50.848;6.776;2022-10-16T05:05:22;100219.47;;;15.73;69.79
72548;BME280;60570;50.848;6.776;2022-10-16T05:06:23;100215.47;;;15.74;69.43
72548;BME280;60570;50.848;6.776;2022-10-16T05:07:23;100219.47;;;15.73;69.71
72548;BME280;60570;50.848;6.776;2022-10-16T05:08:24;100215.06;;;15.72;69.84
72548;BME280;60570;50.848;6.776;2022-10-16T05:09:24;100219.88;;;15.71;69.74
72548;BME280;60570;50.848;6.776;2022-10-16T05:10:25;100220.28;;;15.73;69.84
72548;BME280;60570;50.848;6.776;2022-10-16T05:11:25;100217.88;;;15.72;69.75
72548;BME280;60570;50.848;6.776;2022-10-16T05:12:26;100217.06;;;15.71;69.92
72548;BME280;60570;50.848;6.776;2022-10-16T05:13:26;100219.88;;;15.71;69.44
72548;BME280;60570;50.848;6.776;2022-10-16T05:14:27;100224.66;;;15.71;69.98
72548;BME280;60570;50.848;6.776;2022-10-16T05:15:27;100220.25;;;15.70;69.42
72548;BME280;60570;50.848;6.776;2022-10-16T05:16:29;100228.66;;;15.70;69.90
72548;BME280;60570;50.848;6.776;2022-10-16T05:17:30;100242.66;;;15.70;69.70
72548;BME280;60570;50.848;6.776;2022-10-16T05:18:31;100238.22;;;15.69;69.86
72548;BME280;60570;50.848;6.776;2022-10-16T05:19:31;100237.06;;;15.70;69.81
72548;BME280;60570;50.848;6.776;2022-10-16T05:20:32;100224.22;;;15.69;69.89
72548;BME280;60570;50.848;6.776;2022-10-16T05:21:32;100226.19;;;15.68;69.83
72548;BME280;60570;50.848;6.776;2022-10-16T05:22:33;100219.81;;;15.68;69.69
72548;BME280;60570;50.848;6.776;2022-10-16T05:23:33;100216.19;;;15.67;69.74
72548;BME280;60570;50.848;6.776;2022-10-16T05:24:34;100213.00;;;15.69;69.67
72548;BME280;60570;50.848;6.776;2022-10-16T05:25:35;100217.38;;;15.66;69.76
72548;BME280;60570;50.848;6.776;2022-10-16T05:26:35;100229.38;;;15.67;69.86
72548;BME280;60570;50.848;6.776;2022-10-16T05:27:35;100230.59;;;15.66;69.79
72548;BME280;60570;50.848;6.776;2022-10-16T05:28:36;100234.16;;;15.66;69.78
72548;BME280;60570;50.848;6.776;2022-10-16T05:29:36;100233.38;;;15.66;69.71
72548;BME280;60570;50.848;6.776;2022-10-16T05:30:37;100232.56;;;15.65;69.94
72548;BME280;60570;50.848;6.776;2022-10-16T05:31:38;100232.94;;;15.64;69.84
72548;BME280;60570;50.848;6.776;2022-10-16T05:32:38;100231.38;;;15.66;69.88
72548;BME280;60570;50.848;6.776;2022-10-16T05:33:39;100236.19;;;15.66;69.87
72548;BME280;60570;50.848;6.776;2022-10-16T05:34:39;100231.75;;;15.65;69.98
72548;BME280;60570;50.848;6.776;2022-10-16T05:35:40;100237.34;;;15.65;69.62
72548;BME280;60570;50.848;6.776;2022-10-16T05:36:40;100251.75;;;15.63;69.81